Aeroporto :







RITROVATECI SU...

 
LOGIN :

Iscrizione | Disclaimer

   EN    FR    IT 

 









Sommario :    VFR   VFR Marginale   IFR   IFR Intensivo   IFR Molto Intensivo
Visibilità : 
Base nubi : 
>= 8 km
>= 3000ft
5 / 8 km
1000 / 3000 ft
1500m / 5 km
500 / 1000 ft
800 / 1500m
200 / 500 ft
< 800m
< 200 ft
Simboli :   Temporali  Nebbia  Neve Forte  Precipitazioni Forti  Vento > 20 kt






- Altitudine del aeroporto : 76 ft
- Codice IATA : PWM


KPWM - Portland International Jetport

ULTIMO METAR :
  • 121751Z 23011KT 10SM FEW038 SCT047 31/20 A2956 RMK AO2 SLP009 T03060200 10306 20228 51002

METARs OBSOLETI :
  • 121651Z 24011G19KT 10SM SCT037 BKN050 31/20 A2956 RMK AO2 SLP009 T03060200
  • 121551Z 24012G19KT 10SM FEW035 BKN048 29/20 A2956 RMK AO2 SLP008 T02940200

TAF KPWM
Valido dal 12 a 18 ore il 13 a 18 ore UTC


121720Z 1218/1318 23011G19KT P6SM BKN050
FM122100 23009G17KT P6SM SCT050 SCT250
FM122300 25004KT P6SM BKN250
FM130800 25002KT 5SM BR BKN250
FM131300 VRB04KT P6SM BKN100
FIR KZBW / America del Nord



MetMap, La meteo Aeronautica in un colpo d'occhio ! - Copyright ORBIFLY Dicembre 2007 - Disclaimer

ORBIFLY MET'MAP TEAM :

Programmazione e sviluppo : Alexandra Zaïnal
Concezione : Baudouin d'Aumeries
Aiuto per la programmazione : Marc-Olivier Méhu
Supporto tecnico e logistico : Manuel Goepfert
Aiuto per la traduzione : Arnaldo La Scala

Contatto : metmap@orbifly.com




FONTI E CREDITI :

   NOAA